SKUC/AUC METAR and TAF weather

Enter ICAO airport designator
Station Type Date Time Source
SKUC METAR 2019/04/25 15:00 UTC NOAA

SKUC 251500Z 18008KT 3000 +DZ BKN015 25/25 A2996


Station Type Date Time Source
SKUC Decoded METAR 2019/04/25 15:00 UTC NOAA

Arauca / Santiago Perez, Colombia (SKUC) 07-04N 070-44W 128M
Apr 25, 2019 - 11:00 AM EDT / 2019.04.25 1500 UTC
Wind: from the S (180 degrees) at 9 MPH (8 KT):0
Visibility: 1 mile(s):0
Sky conditions: mostly cloudy
Weather: heavy drizzle
Temperature: 77 F (25 C)
Dew Point: 77 F (25 C)
Relative Humidity: 100%
Pressure (altimeter): 29.96 in. Hg (1014 hPa)
ob: SKUC 251500Z 18008KT 3000 +DZ BKN015 25/25 A2996
cycle: 15

Station Type Date Time Source
SKUC TAF UTC NOAA

Error!

Example: see airport list